sensor_id;sensor_type;location;lat;lon;timestamp;P1;durP1;ratioP1;P2;durP2;ratioP2
5730;SDS011;2890;51.950;7.668;2023-12-14T00:00:06;145.37;;;24.63;;
5730;SDS011;2890;51.950;7.668;2023-12-14T00:02:34;96.57;;;23.27;;
5730;SDS011;2890;51.950;7.668;2023-12-14T00:05:00;165.30;;;25.40;;
5730;SDS011;2890;51.950;7.668;2023-12-14T00:07:28;136.07;;;24.57;;
5730;SDS011;2890;51.950;7.668;2023-12-14T00:09:55;144.60;;;25.63;;
5730;SDS011;2890;51.950;7.668;2023-12-14T00:12:21;154.33;;;25.53;;
5730;SDS011;2890;51.950;7.668;2023-12-14T00:14:48;105.20;;;22.93;;
5730;SDS011;2890;51.950;7.668;2023-12-14T00:17:14;104.83;;;22.17;;
5730;SDS011;2890;51.950;7.668;2023-12-14T00:19:41;89.87;;;21.63;;
5730;SDS011;2890;51.950;7.668;2023-12-14T00:22:08;106.03;;;22.20;;
5730;SDS011;2890;51.950;7.668;2023-12-14T00:24:36;109.53;;;23.03;;
5730;SDS011;2890;51.950;7.668;2023-12-14T00:27:02;113.50;;;22.17;;
5730;SDS011;2890;51.950;7.668;2023-12-14T00:29:29;114.03;;;21.50;;
5730;SDS011;2890;51.950;7.668;2023-12-14T00:31:56;89.43;;;19.80;;
5730;SDS011;2890;51.950;7.668;2023-12-14T00:34:22;105.47;;;21.27;;
5730;SDS011;2890;51.950;7.668;2023-12-14T00:36:49;116.10;;;20.57;;
5730;SDS011;2890;51.950;7.668;2023-12-14T00:39:15;77.30;;;19.70;;
5730;SDS011;2890;51.950;7.668;2023-12-14T00:41:43;77.20;;;17.97;;
5730;SDS011;2890;51.950;7.668;2023-12-14T00:44:09;82.77;;;20.60;;
5730;SDS011;2890;51.950;7.668;2023-12-14T00:46:36;101.80;;;20.40;;
5730;SDS011;2890;51.950;7.668;2023-12-14T00:49:02;102.70;;;20.33;;
5730;SDS011;2890;51.950;7.668;2023-12-14T00:51:29;86.93;;;20.27;;
5730;SDS011;2890;51.950;7.668;2023-12-14T00:53:56;91.90;;;18.93;;
5730;SDS011;2890;51.950;7.668;2023-12-14T00:56:22;80.37;;;18.67;;
5730;SDS011;2890;51.950;7.668;2023-12-14T00:58:50;78.90;;;17.87;;
5730;SDS011;2890;51.950;7.668;2023-12-14T01:01:17;94.80;;;19.97;;
5730;SDS011;2890;51.950;7.668;2023-12-14T01:03:45;123.83;;;22.00;;
5730;SDS011;2890;51.950;7.668;2023-12-14T01:06:12;88.67;;;20.40;;
5730;SDS011;2890;51.950;7.668;2023-12-14T01:08:39;86.23;;;20.10;;
5730;SDS011;2890;51.950;7.668;2023-12-14T01:11:06;110.57;;;22.07;;
5730;SDS011;2890;51.950;7.668;2023-12-14T01:13:32;90.30;;;20.60;;
5730;SDS011;2890;51.950;7.668;2023-12-14T01:16:00;114.90;;;22.23;;
5730;SDS011;2890;51.950;7.668;2023-12-14T01:18:27;108.03;;;21.73;;
5730;SDS011;2890;51.950;7.668;2023-12-14T01:20:53;97.27;;;21.23;;
5730;SDS011;2890;51.950;7.668;2023-12-14T01:23:20;107.47;;;22.00;;
5730;SDS011;2890;51.950;7.668;2023-12-14T01:25:46;107.90;;;22.47;;
5730;SDS011;2890;51.950;7.668;2023-12-14T01:28:13;94.67;;;20.80;;
5730;SDS011;2890;51.950;7.668;2023-12-14T01:30:39;106.67;;;21.10;;
5730;SDS011;2890;51.950;7.668;2023-12-14T01:33:07;97.57;;;19.50;;
5730;SDS011;2890;51.950;7.668;2023-12-14T01:35:33;96.07;;;19.60;;
5730;SDS011;2890;51.950;7.668;2023-12-14T01:38:00;93.00;;;20.07;;
5730;SDS011;2890;51.950;7.668;2023-12-14T01:40:26;80.00;;;18.00;;
5730;SDS011;2890;51.950;7.668;2023-12-14T01:42:53;91.80;;;20.53;;
5730;SDS011;2890;51.950;7.668;2023-12-14T01:45:19;113.07;;;21.47;;
5730;SDS011;2890;51.950;7.668;2023-12-14T01:47:46;108.10;;;21.87;;
5730;SDS011;2890;51.950;7.668;2023-12-14T01:50:14;122.27;;;21.10;;
5730;SDS011;2890;51.950;7.668;2023-12-14T01:52:39;84.97;;;20.73;;
5730;SDS011;2890;51.950;7.668;2023-12-14T01:55:06;70.37;;;16.90;;
5730;SDS011;2890;51.950;7.668;2023-12-14T01:57:33;81.30;;;19.20;;
5730;SDS011;2890;51.950;7.668;2023-12-14T02:00:01;107.50;;;19.20;;
5730;SDS011;2890;51.950;7.668;2023-12-14T02:02:32;72.70;;;17.40;;
5730;SDS011;2890;51.950;7.668;2023-12-14T02:05:00;94.53;;;19.50;;
5730;SDS011;2890;51.950;7.668;2023-12-14T02:07:28;95.03;;;20.33;;
5730;SDS011;2890;51.950;7.668;2023-12-14T02:09:55;91.77;;;20.33;;
5730;SDS011;2890;51.950;7.668;2023-12-14T02:12:21;83.87;;;19.50;;
5730;SDS011;2890;51.950;7.668;2023-12-14T02:14:48;92.80;;;18.67;;
5730;SDS011;2890;51.950;7.668;2023-12-14T02:17:15;90.10;;;18.00;;
5730;SDS011;2890;51.950;7.668;2023-12-14T02:19:41;84.73;;;18.70;;
5730;SDS011;2890;51.950;7.668;2023-12-14T02:22:08;86.97;;;18.40;;
5730;SDS011;2890;51.950;7.668;2023-12-14T02:24:36;76.30;;;16.83;;
5730;SDS011;2890;51.950;7.668;2023-12-14T02:27:02;69.87;;;16.73;;
5730;SDS011;2890;51.950;7.668;2023-12-14T02:29:29;67.87;;;15.77;;
5730;SDS011;2890;51.950;7.668;2023-12-14T02:31:56;76.00;;;17.63;;
5730;SDS011;2890;51.950;7.668;2023-12-14T02:34:22;50.50;;;13.73;;
5730;SDS011;2890;51.950;7.668;2023-12-14T02:36:49;68.17;;;16.27;;
5730;SDS011;2890;51.950;7.668;2023-12-14T02:39:16;66.40;;;15.80;;
5730;SDS011;2890;51.950;7.668;2023-12-14T02:41:44;68.73;;;15.90;;
5730;SDS011;2890;51.950;7.668;2023-12-14T02:44:10;53.00;;;15.13;;
5730;SDS011;2890;51.950;7.668;2023-12-14T02:46:37;63.97;;;16.53;;
5730;SDS011;2890;51.950;7.668;2023-12-14T02:49:03;55.27;;;14.70;;
5730;SDS011;2890;51.950;7.668;2023-12-14T02:51:30;56.60;;;14.80;;
5730;SDS011;2890;51.950;7.668;2023-12-14T02:53:56;51.60;;;14.57;;
5730;SDS011;2890;51.950;7.668;2023-12-14T02:56:23;73.73;;;17.27;;
5730;SDS011;2890;51.950;7.668;2023-12-14T02:58:51;65.33;;;16.70;;
5730;SDS011;2890;51.950;7.668;2023-12-14T03:01:19;65.17;;;16.47;;
5730;SDS011;2890;51.950;7.668;2023-12-14T03:03:46;70.10;;;16.23;;
5730;SDS011;2890;51.950;7.668;2023-12-14T03:06:13;60.40;;;15.47;;
5730;SDS011;2890;51.950;7.668;2023-12-14T03:08:39;63.80;;;17.60;;
5730;SDS011;2890;51.950;7.668;2023-12-14T03:11:06;69.47;;;16.53;;
5730;SDS011;2890;51.950;7.668;2023-12-14T03:13:32;63.30;;;17.80;;
5730;SDS011;2890;51.950;7.668;2023-12-14T03:16:00;71.97;;;17.63;;
5730;SDS011;2890;51.950;7.668;2023-12-14T03:18:27;71.93;;;17.70;;
5730;SDS011;2890;51.950;7.668;2023-12-14T03:20:53;64.00;;;17.17;;
5730;SDS011;2890;51.950;7.668;2023-12-14T03:23:20;66.47;;;18.10;;
5730;SDS011;2890;51.950;7.668;2023-12-14T03:25:46;62.83;;;17.27;;
5730;SDS011;2890;51.950;7.668;2023-12-14T03:28:13;77.60;;;19.37;;
5730;SDS011;2890;51.950;7.668;2023-12-14T03:30:39;78.43;;;19.50;;
5730;SDS011;2890;51.950;7.668;2023-12-14T03:33:07;72.23;;;18.10;;
5730;SDS011;2890;51.950;7.668;2023-12-14T03:35:34;74.07;;;19.97;;
5730;SDS011;2890;51.950;7.668;2023-12-14T03:38:01;68.57;;;19.30;;
5730;SDS011;2890;51.950;7.668;2023-12-14T03:40:27;71.50;;;19.50;;
5730;SDS011;2890;51.950;7.668;2023-12-14T03:42:54;87.23;;;21.33;;
5730;SDS011;2890;51.950;7.668;2023-12-14T03:45:20;87.37;;;20.20;;
5730;SDS011;2890;51.950;7.668;2023-12-14T03:47:47;84.00;;;19.73;;
5730;SDS011;2890;51.950;7.668;2023-12-14T03:50:14;78.50;;;19.60;;
5730;SDS011;2890;51.950;7.668;2023-12-14T03:52:41;69.20;;;17.60;;
5730;SDS011;2890;51.950;7.668;2023-12-14T03:55:07;69.37;;;18.67;;
5730;SDS011;2890;51.950;7.668;2023-12-14T03:57:34;72.67;;;17.97;;
5730;SDS011;2890;51.950;7.668;2023-12-14T04:00:04;57.40;;;17.00;;
5730;SDS011;2890;51.950;7.668;2023-12-14T04:02:36;74.70;;;18.70;;
5730;SDS011;2890;51.950;7.668;2023-12-14T04:05:02;70.43;;;18.67;;
5730;SDS011;2890;51.950;7.668;2023-12-14T04:07:31;64.83;;;18.60;;
5730;SDS011;2890;51.950;7.668;2023-12-14T04:09:57;74.17;;;18.50;;
5730;SDS011;2890;51.950;7.668;2023-12-14T04:12:24;71.63;;;19.10;;
5730;SDS011;2890;51.950;7.668;2023-12-14T04:14:50;77.30;;;19.60;;
5730;SDS011;2890;51.950;7.668;2023-12-14T04:17:17;61.97;;;18.53;;
5730;SDS011;2890;51.950;7.668;2023-12-14T04:19:43;61.33;;;18.60;;
5730;SDS011;2890;51.950;7.668;2023-12-14T04:22:10;71.23;;;18.73;;
5730;SDS011;2890;51.950;7.668;2023-12-14T04:24:38;83.37;;;20.50;;
5730;SDS011;2890;51.950;7.668;2023-12-14T04:27:04;75.73;;;19.83;;
5730;SDS011;2890;51.950;7.668;2023-12-14T04:29:31;75.67;;;19.87;;
5730;SDS011;2890;51.950;7.668;2023-12-14T04:31:57;70.03;;;19.80;;
5730;SDS011;2890;51.950;7.668;2023-12-14T04:34:24;66.53;;;18.70;;
5730;SDS011;2890;51.950;7.668;2023-12-14T04:36:51;73.87;;;21.23;;
5730;SDS011;2890;51.950;7.668;2023-12-14T04:39:17;66.07;;;19.40;;
5730;SDS011;2890;51.950;7.668;2023-12-14T04:41:46;72.73;;;20.67;;
5730;SDS011;2890;51.950;7.668;2023-12-14T04:44:13;73.50;;;21.33;;
5730;SDS011;2890;51.950;7.668;2023-12-14T04:46:39;75.40;;;20.90;;
5730;SDS011;2890;51.950;7.668;2023-12-14T04:49:06;72.07;;;21.37;;
5730;SDS011;2890;51.950;7.668;2023-12-14T04:51:32;77.93;;;20.37;;
5730;SDS011;2890;51.950;7.668;2023-12-14T04:53:59;75.37;;;20.37;;
5730;SDS011;2890;51.950;7.668;2023-12-14T04:56:25;79.93;;;20.63;;
5730;SDS011;2890;51.950;7.668;2023-12-14T04:58:53;75.60;;;21.80;;
5730;SDS011;2890;51.950;7.668;2023-12-14T05:01:20;79.47;;;21.60;;
5730;SDS011;2890;51.950;7.668;2023-12-14T05:03:46;81.07;;;20.43;;
5730;SDS011;2890;51.950;7.668;2023-12-14T05:06:13;68.33;;;21.07;;
5730;SDS011;2890;51.950;7.668;2023-12-14T05:08:39;85.73;;;20.40;;
5730;SDS011;2890;51.950;7.668;2023-12-14T05:11:06;73.07;;;21.10;;
5730;SDS011;2890;51.950;7.668;2023-12-14T05:13:32;67.53;;;19.83;;
5730;SDS011;2890;51.950;7.668;2023-12-14T05:16:00;68.47;;;19.30;;
5730;SDS011;2890;51.950;7.668;2023-12-14T05:18:27;65.83;;;19.17;;
5730;SDS011;2890;51.950;7.668;2023-12-14T05:20:53;62.17;;;18.53;;
5730;SDS011;2890;51.950;7.668;2023-12-14T05:23:20;66.13;;;19.03;;
5730;SDS011;2890;51.950;7.668;2023-12-14T05:25:46;72.57;;;20.13;;
5730;SDS011;2890;51.950;7.668;2023-12-14T05:28:13;69.30;;;19.93;;
5730;SDS011;2890;51.950;7.668;2023-12-14T05:30:39;58.13;;;17.23;;
5730;SDS011;2890;51.950;7.668;2023-12-14T05:33:08;60.73;;;19.23;;
5730;SDS011;2890;51.950;7.668;2023-12-14T05:35:34;59.73;;;19.10;;
5730;SDS011;2890;51.950;7.668;2023-12-14T05:38:00;63.73;;;18.83;;
5730;SDS011;2890;51.950;7.668;2023-12-14T05:40:27;58.93;;;18.50;;
5730;SDS011;2890;51.950;7.668;2023-12-14T05:42:54;53.43;;;17.77;;
5730;SDS011;2890;51.950;7.668;2023-12-14T05:45:20;56.03;;;18.80;;
5730;SDS011;2890;51.950;7.668;2023-12-14T05:47:47;68.27;;;18.10;;
5730;SDS011;2890;51.950;7.668;2023-12-14T05:50:15;57.87;;;18.87;;
5730;SDS011;2890;51.950;7.668;2023-12-14T05:52:41;71.90;;;21.10;;
5730;SDS011;2890;51.950;7.668;2023-12-14T05:55:08;68.43;;;20.40;;
5730;SDS011;2890;51.950;7.668;2023-12-14T05:57:35;62.07;;;20.23;;
5730;SDS011;2890;51.950;7.668;2023-12-14T06:00:02;69.77;;;20.43;;
5730;SDS011;2890;51.950;7.668;2023-12-14T06:02:30;71.93;;;21.67;;
5730;SDS011;2890;51.950;7.668;2023-12-14T06:04:57;58.77;;;20.53;;
5730;SDS011;2890;51.950;7.668;2023-12-14T06:07:25;59.83;;;21.17;;
5730;SDS011;2890;51.950;7.668;2023-12-14T06:09:51;64.03;;;20.60;;
5730;SDS011;2890;51.950;7.668;2023-12-14T06:12:18;67.63;;;20.60;;
5730;SDS011;2890;51.950;7.668;2023-12-14T06:14:44;73.10;;;21.43;;
5730;SDS011;2890;51.950;7.668;2023-12-14T06:17:11;70.13;;;22.10;;
5730;SDS011;2890;51.950;7.668;2023-12-14T06:19:37;66.03;;;21.33;;
5730;SDS011;2890;51.950;7.668;2023-12-14T06:22:04;60.33;;;20.80;;
5730;SDS011;2890;51.950;7.668;2023-12-14T06:24:32;61.13;;;20.37;;
5730;SDS011;2890;51.950;7.668;2023-12-14T06:26:58;58.53;;;20.57;;
5730;SDS011;2890;51.950;7.668;2023-12-14T06:29:25;67.47;;;21.43;;
5730;SDS011;2890;51.950;7.668;2023-12-14T06:31:51;58.60;;;20.27;;
5730;SDS011;2890;51.950;7.668;2023-12-14T06:34:18;57.70;;;20.37;;
5730;SDS011;2890;51.950;7.668;2023-12-14T06:36:45;51.87;;;20.20;;
5730;SDS011;2890;51.950;7.668;2023-12-14T06:39:11;58.23;;;20.80;;
5730;SDS011;2890;51.950;7.668;2023-12-14T06:41:39;56.63;;;20.50;;
5730;SDS011;2890;51.950;7.668;2023-12-14T06:44:06;50.10;;;20.40;;
5730;SDS011;2890;51.950;7.668;2023-12-14T06:46:34;54.53;;;19.13;;
5730;SDS011;2890;51.950;7.668;2023-12-14T06:49:00;51.43;;;20.00;;
5730;SDS011;2890;51.950;7.668;2023-12-14T06:51:27;54.83;;;19.60;;
5730;SDS011;2890;51.950;7.668;2023-12-14T06:53:53;50.07;;;19.17;;
5730;SDS011;2890;51.950;7.668;2023-12-14T06:56:20;48.07;;;19.33;;
5730;SDS011;2890;51.950;7.668;2023-12-14T06:58:48;50.40;;;19.40;;
5730;SDS011;2890;51.950;7.668;2023-12-14T07:01:14;51.07;;;19.87;;
5730;SDS011;2890;51.950;7.668;2023-12-14T07:03:41;55.90;;;21.60;;
5730;SDS011;2890;51.950;7.668;2023-12-14T07:06:11;60.73;;;21.50;;
5730;SDS011;2890;51.950;7.668;2023-12-14T07:08:38;52.07;;;20.10;;
5730;SDS011;2890;51.950;7.668;2023-12-14T07:11:05;54.00;;;21.33;;
5730;SDS011;2890;51.950;7.668;2023-12-14T07:13:32;57.43;;;21.77;;
5730;SDS011;2890;51.950;7.668;2023-12-14T07:16:00;52.03;;;20.30;;
5730;SDS011;2890;51.950;7.668;2023-12-14T07:18:26;52.80;;;22.27;;
5730;SDS011;2890;51.950;7.668;2023-12-14T07:20:53;57.63;;;22.27;;
5730;SDS011;2890;51.950;7.668;2023-12-14T07:23:19;57.30;;;23.33;;
5730;SDS011;2890;51.950;7.668;2023-12-14T07:25:46;49.60;;;20.83;;
5730;SDS011;2890;51.950;7.668;2023-12-14T07:28:12;53.60;;;21.93;;
5730;SDS011;2890;51.950;7.668;2023-12-14T07:30:39;54.80;;;22.53;;
5730;SDS011;2890;51.950;7.668;2023-12-14T07:33:07;49.70;;;20.20;;
5730;SDS011;2890;51.950;7.668;2023-12-14T07:35:33;49.33;;;20.67;;
5730;SDS011;2890;51.950;7.668;2023-12-14T07:38:00;49.03;;;19.33;;
5730;SDS011;2890;51.950;7.668;2023-12-14T07:40:27;50.80;;;21.70;;
5730;SDS011;2890;51.950;7.668;2023-12-14T07:42:53;44.87;;;21.20;;
5730;SDS011;2890;51.950;7.668;2023-12-14T07:45:20;44.27;;;20.07;;
5730;SDS011;2890;51.950;7.668;2023-12-14T07:47:46;38.57;;;18.93;;
5730;SDS011;2890;51.950;7.668;2023-12-14T07:50:14;37.77;;;19.53;;
5730;SDS011;2890;51.950;7.668;2023-12-14T07:52:41;37.40;;;18.80;;
5730;SDS011;2890;51.950;7.668;2023-12-14T07:55:07;36.83;;;17.73;;
5730;SDS011;2890;51.950;7.668;2023-12-14T07:57:34;35.57;;;18.90;;
5730;SDS011;2890;51.950;7.668;2023-12-14T08:00:01;35.70;;;18.00;;
5730;SDS011;2890;51.950;7.668;2023-12-14T08:02:28;30.80;;;17.87;;
5730;SDS011;2890;51.950;7.668;2023-12-14T08:04:55;32.73;;;18.43;;
5730;SDS011;2890;51.950;7.668;2023-12-14T08:07:23;31.87;;;19.57;;
5730;SDS011;2890;51.950;7.668;2023-12-14T08:09:54;32.17;;;18.20;;
5730;SDS011;2890;51.950;7.668;2023-12-14T08:12:20;32.03;;;18.40;;
5730;SDS011;2890;51.950;7.668;2023-12-14T08:14:47;29.13;;;17.27;;
5730;SDS011;2890;51.950;7.668;2023-12-14T08:17:13;30.43;;;17.67;;
5730;SDS011;2890;51.950;7.668;2023-12-14T08:19:40;30.13;;;17.83;;
5730;SDS011;2890;51.950;7.668;2023-12-14T08:22:07;29.70;;;18.00;;
5730;SDS011;2890;51.950;7.668;2023-12-14T08:24:37;28.47;;;18.77;;
5730;SDS011;2890;51.950;7.668;2023-12-14T08:27:04;25.73;;;18.50;;
5730;SDS011;2890;51.950;7.668;2023-12-14T08:29:30;34.63;;;19.30;;
5730;SDS011;2890;51.950;7.668;2023-12-14T08:31:57;32.30;;;20.70;;
5730;SDS011;2890;51.950;7.668;2023-12-14T08:34:24;33.27;;;20.60;;
5730;SDS011;2890;51.950;7.668;2023-12-14T08:36:51;32.33;;;19.97;;
5730;SDS011;2890;51.950;7.668;2023-12-14T08:39:17;30.10;;;19.47;;
5730;SDS011;2890;51.950;7.668;2023-12-14T08:41:46;25.67;;;18.20;;
5730;SDS011;2890;51.950;7.668;2023-12-14T08:44:13;26.60;;;18.77;;
5730;SDS011;2890;51.950;7.668;2023-12-14T08:46:40;23.67;;;17.40;;
5730;SDS011;2890;51.950;7.668;2023-12-14T08:49:07;23.93;;;17.00;;
5730;SDS011;2890;51.950;7.668;2023-12-14T08:51:33;21.37;;;16.90;;
5730;SDS011;2890;51.950;7.668;2023-12-14T08:54:00;21.73;;;16.73;;
5730;SDS011;2890;51.950;7.668;2023-12-14T08:56:27;21.90;;;17.20;;
5730;SDS011;2890;51.950;7.668;2023-12-14T08:58:54;22.23;;;17.33;;
5730;SDS011;2890;51.950;7.668;2023-12-14T09:01:22;23.20;;;16.00;;
5730;SDS011;2890;51.950;7.668;2023-12-14T09:03:49;20.43;;;15.90;;
5730;SDS011;2890;51.950;7.668;2023-12-14T09:06:16;22.17;;;16.70;;
5730;SDS011;2890;51.950;7.668;2023-12-14T09:08:43;20.67;;;16.13;;
5730;SDS011;2890;51.950;7.668;2023-12-14T09:11:10;21.43;;;16.20;;
5730;SDS011;2890;51.950;7.668;2023-12-14T09:13:37;20.23;;;15.77;;
5730;SDS011;2890;51.950;7.668;2023-12-14T09:16:05;18.07;;;15.00;;
5730;SDS011;2890;51.950;7.668;2023-12-14T09:18:32;18.07;;;15.20;;
5730;SDS011;2890;51.950;7.668;2023-12-14T09:20:58;20.83;;;15.97;;
5730;SDS011;2890;51.950;7.668;2023-12-14T09:23:25;17.73;;;15.07;;
5730;SDS011;2890;51.950;7.668;2023-12-14T09:25:51;21.30;;;15.83;;
5730;SDS011;2890;51.950;7.668;2023-12-14T09:28:18;19.13;;;15.83;;
5730;SDS011;2890;51.950;7.668;2023-12-14T09:30:44;16.60;;;14.10;;
5730;SDS011;2890;51.950;7.668;2023-12-14T09:33:12;18.27;;;15.43;;
5730;SDS011;2890;51.950;7.668;2023-12-14T09:35:39;16.70;;;14.97;;
5730;SDS011;2890;51.950;7.668;2023-12-14T09:38:06;17.83;;;14.90;;
5730;SDS011;2890;51.950;7.668;2023-12-14T09:40:33;17.33;;;15.07;;
5730;SDS011;2890;51.950;7.668;2023-12-14T09:43:00;18.00;;;16.10;;
5730;SDS011;2890;51.950;7.668;2023-12-14T09:45:27;20.87;;;15.63;;
5730;SDS011;2890;51.950;7.668;2023-12-14T09:47:54;18.20;;;15.97;;
5730;SDS011;2890;51.950;7.668;2023-12-14T09:50:23;19.27;;;16.13;;
5730;SDS011;2890;51.950;7.668;2023-12-14T09:52:50;16.77;;;14.77;;
5730;SDS011;2890;51.950;7.668;2023-12-14T09:55:17;18.20;;;15.77;;
5730;SDS011;2890;51.950;7.668;2023-12-14T09:57:42;19.50;;;16.07;;
5730;SDS011;2890;51.950;7.668;2023-12-14T10:00:09;19.20;;;16.40;;
5730;SDS011;2890;51.950;7.668;2023-12-14T10:02:39;19.17;;;16.40;;
5730;SDS011;2890;51.950;7.668;2023-12-14T10:05:07;18.40;;;16.10;;
5730;SDS011;2890;51.950;7.668;2023-12-14T10:07:39;22.77;;;17.23;;
5730;SDS011;2890;51.950;7.668;2023-12-14T10:10:11;21.20;;;16.20;;
5730;SDS011;2890;51.950;7.668;2023-12-14T10:12:49;21.43;;;17.87;;
5730;SDS011;2890;51.950;7.668;2023-12-14T10:15:17;21.80;;;17.50;;
5730;SDS011;2890;51.950;7.668;2023-12-14T10:17:43;23.60;;;17.33;;
5730;SDS011;2890;51.950;7.668;2023-12-14T10:20:18;20.53;;;17.23;;
5730;SDS011;2890;51.950;7.668;2023-12-14T10:22:48;19.23;;;16.77;;
5730;SDS011;2890;51.950;7.668;2023-12-14T10:25:15;20.40;;;17.30;;
5730;SDS011;2890;51.950;7.668;2023-12-14T10:27:42;20.60;;;17.17;;
5730;SDS011;2890;51.950;7.668;2023-12-14T10:30:09;23.63;;;18.30;;
5730;SDS011;2890;51.950;7.668;2023-12-14T10:32:37;28.27;;;17.73;;
5730;SDS011;2890;51.950;7.668;2023-12-14T10:35:06;19.27;;;17.17;;
5730;SDS011;2890;51.950;7.668;2023-12-14T10:37:32;20.77;;;16.20;;
5730;SDS011;2890;51.950;7.668;2023-12-14T10:40:05;21.43;;;16.43;;
5730;SDS011;2890;51.950;7.668;2023-12-14T10:42:35;17.37;;;15.47;;
5730;SDS011;2890;51.950;7.668;2023-12-14T10:45:03;19.60;;;16.57;;
5730;SDS011;2890;51.950;7.668;2023-12-14T10:47:30;17.93;;;16.00;;
5730;SDS011;2890;51.950;7.668;2023-12-14T10:49:56;17.27;;;15.57;;
5730;SDS011;2890;51.950;7.668;2023-12-14T10:52:26;19.37;;;16.20;;
5730;SDS011;2890;51.950;7.668;2023-12-14T10:54:56;21.27;;;15.90;;
5730;SDS011;2890;51.950;7.668;2023-12-14T10:57:25;17.97;;;16.07;;
5730;SDS011;2890;51.950;7.668;2023-12-14T10:59:55;17.67;;;15.77;;
5730;SDS011;2890;51.950;7.668;2023-12-14T11:02:24;16.30;;;14.57;;
5730;SDS011;2890;51.950;7.668;2023-12-14T11:04:54;17.10;;;15.30;;
5730;SDS011;2890;51.950;7.668;2023-12-14T11:10:12;20.57;;;16.63;;
5730;SDS011;2890;51.950;7.668;2023-12-14T11:12:49;17.60;;;15.63;;
5730;SDS011;2890;51.950;7.668;2023-12-14T11:15:17;17.77;;;15.70;;
5730;SDS011;2890;51.950;7.668;2023-12-14T11:20:48;20.37;;;15.70;;
5730;SDS011;2890;51.950;7.668;2023-12-14T11:23:16;17.90;;;16.00;;
5730;SDS011;2890;51.950;7.668;2023-12-14T11:25:55;16.20;;;14.60;;
5730;SDS011;2890;51.950;7.668;2023-12-14T11:28:24;17.80;;;15.90;;
5730;SDS011;2890;51.950;7.668;2023-12-14T11:30:51;18.30;;;16.30;;
5730;SDS011;2890;51.950;7.668;2023-12-14T11:33:19;18.77;;;16.77;;
5730;SDS011;2890;51.950;7.668;2023-12-14T11:35:45;21.00;;;17.20;;
5730;SDS011;2890;51.950;7.668;2023-12-14T11:38:12;21.20;;;16.43;;
5730;SDS011;2890;51.950;7.668;2023-12-14T11:40:38;18.10;;;16.20;;
5730;SDS011;2890;51.950;7.668;2023-12-14T11:43:08;20.00;;;17.23;;
5730;SDS011;2890;51.950;7.668;2023-12-14T11:45:37;22.30;;;17.80;;
5730;SDS011;2890;51.950;7.668;2023-12-14T11:48:06;20.77;;;17.30;;
5730;SDS011;2890;51.950;7.668;2023-12-14T11:50:35;18.67;;;16.67;;
5730;SDS011;2890;51.950;7.668;2023-12-14T11:53:02;20.63;;;16.63;;
5730;SDS011;2890;51.950;7.668;2023-12-14T11:55:30;19.30;;;17.30;;
5730;SDS011;2890;51.950;7.668;2023-12-14T11:57:57;19.83;;;16.60;;
5730;SDS011;2890;51.950;7.668;2023-12-14T12:00:24;17.37;;;15.00;;
5730;SDS011;2890;51.950;7.668;2023-12-14T12:02:53;19.03;;;16.00;;
5730;SDS011;2890;51.950;7.668;2023-12-14T12:05:37;18.10;;;16.27;;
5730;SDS011;2890;51.950;7.668;2023-12-14T12:08:04;17.37;;;15.57;;
5730;SDS011;2890;51.950;7.668;2023-12-14T12:10:31;20.00;;;17.87;;
5730;SDS011;2890;51.950;7.668;2023-12-14T12:12:59;20.00;;;16.37;;
5730;SDS011;2890;51.950;7.668;2023-12-14T12:15:27;20.13;;;16.30;;
5730;SDS011;2890;51.950;7.668;2023-12-14T12:17:55;19.70;;;16.10;;
5730;SDS011;2890;51.950;7.668;2023-12-14T12:20:21;19.23;;;16.20;;
5730;SDS011;2890;51.950;7.668;2023-12-14T12:22:48;18.80;;;16.80;;
5730;SDS011;2890;51.950;7.668;2023-12-14T12:25:16;16.60;;;14.83;;
5730;SDS011;2890;51.950;7.668;2023-12-14T12:27:43;22.77;;;16.03;;
5730;SDS011;2890;51.950;7.668;2023-12-14T12:30:10;20.17;;;16.07;;
5730;SDS011;2890;51.950;7.668;2023-12-14T12:32:37;22.10;;;15.70;;
5730;SDS011;2890;51.950;7.668;2023-12-14T12:35:06;16.77;;;15.00;;
5730;SDS011;2890;51.950;7.668;2023-12-14T12:37:33;18.23;;;16.10;;
5730;SDS011;2890;51.950;7.668;2023-12-14T12:39:59;17.20;;;15.50;;
5730;SDS011;2890;51.950;7.668;2023-12-14T12:42:26;15.43;;;13.83;;
5730;SDS011;2890;51.950;7.668;2023-12-14T12:44:54;17.50;;;15.80;;
5730;SDS011;2890;51.950;7.668;2023-12-14T12:47:21;18.97;;;15.87;;
5730;SDS011;2890;51.950;7.668;2023-12-14T12:49:47;18.43;;;16.43;;
5730;SDS011;2890;51.950;7.668;2023-12-14T12:52:16;17.03;;;15.20;;
5730;SDS011;2890;51.950;7.668;2023-12-14T12:54:43;15.07;;;13.57;;
5730;SDS011;2890;51.950;7.668;2023-12-14T12:57:09;17.73;;;15.60;;
5730;SDS011;2890;51.950;7.668;2023-12-14T12:59:36;16.53;;;15.03;;
5730;SDS011;2890;51.950;7.668;2023-12-14T13:02:02;18.83;;;15.53;;
5730;SDS011;2890;51.950;7.668;2023-12-14T13:04:29;17.07;;;15.23;;
5730;SDS011;2890;51.950;7.668;2023-12-14T13:06:56;18.73;;;16.00;;
5730;SDS011;2890;51.950;7.668;2023-12-14T13:09:24;17.97;;;16.07;;
5730;SDS011;2890;51.950;7.668;2023-12-14T13:11:51;18.93;;;14.93;;
5730;SDS011;2890;51.950;7.668;2023-12-14T13:14:18;15.60;;;14.10;;
5730;SDS011;2890;51.950;7.668;2023-12-14T13:16:47;12.83;;;11.70;;
5730;SDS011;2890;51.950;7.668;2023-12-14T13:19:15;13.57;;;12.37;;
5730;SDS011;2890;51.950;7.668;2023-12-14T13:21:41;13.97;;;12.77;;
5730;SDS011;2890;51.950;7.668;2023-12-14T13:24:08;14.47;;;13.00;;
5730;SDS011;2890;51.950;7.668;2023-12-14T13:26:36;14.97;;;13.47;;
5730;SDS011;2890;51.950;7.668;2023-12-14T13:29:03;14.80;;;13.40;;
5730;SDS011;2890;51.950;7.668;2023-12-14T13:31:30;14.63;;;13.13;;
5730;SDS011;2890;51.950;7.668;2023-12-14T13:33:57;15.53;;;13.33;;
5730;SDS011;2890;51.950;7.668;2023-12-14T13:36:23;14.97;;;13.47;;
5730;SDS011;2890;51.950;7.668;2023-12-14T13:38:50;13.80;;;12.40;;
5730;SDS011;2890;51.950;7.668;2023-12-14T13:41:17;14.30;;;12.97;;
5730;SDS011;2890;51.950;7.668;2023-12-14T13:43:45;13.73;;;12.53;;
5730;SDS011;2890;51.950;7.668;2023-12-14T13:46:11;14.33;;;12.93;;
5730;SDS011;2890;51.950;7.668;2023-12-14T13:48:38;15.00;;;13.60;;
5730;SDS011;2890;51.950;7.668;2023-12-14T13:51:04;14.43;;;12.93;;
5730;SDS011;2890;51.950;7.668;2023-12-14T13:53:32;16.77;;;14.13;;
5730;SDS011;2890;51.950;7.668;2023-12-14T13:55:59;16.03;;;14.13;;
5730;SDS011;2890;51.950;7.668;2023-12-14T13:58:25;15.87;;;14.17;;
5730;SDS011;2890;51.950;7.668;2023-12-14T14:00:53;15.90;;;14.23;;
5730;SDS011;2890;51.950;7.668;2023-12-14T14:03:20;16.17;;;14.53;;
5730;SDS011;2890;51.950;7.668;2023-12-14T14:05:46;15.90;;;14.30;;
5730;SDS011;2890;51.950;7.668;2023-12-14T14:08:13;16.60;;;14.90;;
5730;SDS011;2890;51.950;7.668;2023-12-14T14:10:39;16.40;;;14.83;;
5730;SDS011;2890;51.950;7.668;2023-12-14T14:13:06;15.87;;;14.17;;
5730;SDS011;2890;51.950;7.668;2023-12-14T14:15:32;16.70;;;14.90;;
5730;SDS011;2890;51.950;7.668;2023-12-14T14:18:00;15.73;;;14.23;;
5730;SDS011;2890;51.950;7.668;2023-12-14T14:20:27;15.60;;;14.10;;
5730;SDS011;2890;51.950;7.668;2023-12-14T14:22:54;14.77;;;13.33;;
5730;SDS011;2890;51.950;7.668;2023-12-14T14:25:21;16.33;;;14.73;;
5730;SDS011;2890;51.950;7.668;2023-12-14T14:27:47;15.07;;;13.67;;
5730;SDS011;2890;51.950;7.668;2023-12-14T14:30:14;15.17;;;13.60;;
5730;SDS011;2890;51.950;7.668;2023-12-14T14:32:41;13.77;;;12.37;;
5730;SDS011;2890;51.950;7.668;2023-12-14T14:35:09;15.07;;;13.67;;
5730;SDS011;2890;51.950;7.668;2023-12-14T14:37:35;16.20;;;13.77;;
5730;SDS011;2890;51.950;7.668;2023-12-14T14:40:02;15.37;;;13.83;;
5730;SDS011;2890;51.950;7.668;2023-12-14T14:42:29;15.00;;;13.40;;
5730;SDS011;2890;51.950;7.668;2023-12-14T14:44:57;16.23;;;14.60;;
5730;SDS011;2890;51.950;7.668;2023-12-14T14:47:23;15.03;;;13.53;;
5730;SDS011;2890;51.950;7.668;2023-12-14T14:49:50;15.50;;;13.93;;